Time;durP1;ratioP1;P1;durP2;ratioP2;P2;SDS_P1;SDS_P2;PMS_P1;PMS_P2;Temp;Humidity;BMP_temperature;BMP_pressure;BME280_temperature;BME280_humidity;BME280_pressure;Samples;Min_cycle;Max_cycle;Signal;HPM_P1;HPM_P2
2022/01/03 00:00:52;;;;;;;;;;;;;;;9.10;100.00;99983.34;5011536;28;1010;-71
2022/01/03 00:03:19;;;;;;;;;;;;;;;9.13;100.00;99983.94;5011163;28;1332;-70
2022/01/03 00:05:46;;;;;;;;;;;;;;;9.13;100.00;99973.13;5009659;28;1484;-73
2022/01/03 00:08:12;;;;;;;;;;;;;;;9.16;100.00;99978.25;5010140;28;978;-73
2022/01/03 00:10:39;;;;;;;;;;;;;;;9.12;100.00;99976.81;5011231;28;1042;-73
2022/01/03 00:13:06;;;;;;;;;;;;;;;9.00;100.00;99984.16;5009934;28;1392;-73
2022/01/03 00:15:33;;;;;;;;;;;;;;;8.82;100.00;99985.75;5010997;28;1910;-70
2022/01/03 00:17:59;;;;;;;;;;;;;;;8.66;100.00;99986.22;5010850;28;741;-71
2022/01/03 00:20:27;;;;;;;;;;;;;;;8.52;100.00;99987.34;5009554;28;1348;-71
2022/01/03 00:22:56;;;;;;;;;;;;;;;8.40;100.00;99978.41;5009383;28;1352;-72
2022/01/03 00:25:23;;;;;;;;;;;;;;;8.33;100.00;99974.50;5009756;28;895;-73
2022/01/03 00:27:53;;;;;;;;;;;;;;;8.25;100.00;99971.59;5010888;28;1270;-71
2022/01/03 00:30:21;;;;;;;;;;;;;;;8.20;100.00;99970.13;5010119;28;967;-73
2022/01/03 00:32:50;;;;;;;;;;;;;;;8.16;100.00;99967.78;5009632;28;1395;-72
2022/01/03 00:35:17;;;;;;;;;;;;;;;8.13;100.00;99962.66;5009699;28;1923;-73
2022/01/03 00:37:44;;;;;;;;;;;;;;;8.10;100.00;99946.69;5009429;28;947;-73
2022/01/03 00:40:10;;;;;;;;;;;;;;;8.10;100.00;99939.44;5009484;28;860;-72
2022/01/03 00:42:37;;;;;;;;;;;;;;;8.12;100.00;99940.16;5009582;28;1395;-71
2022/01/03 00:45:03;;;;;;;;;;;;;;;8.11;100.00;99930.34;5009538;28;1007;-71
2022/01/03 00:47:32;;;;;;;;;;;;;;;8.09;100.00;99929.59;5010578;28;1023;-74
2022/01/03 00:50:00;;;;;;;;;;;;;;;8.09;100.00;99923.34;5010750;28;982;-73
2022/01/03 00:52:26;;;;;;;;;;;;;;;8.09;100.00;99926.03;5010947;28;1316;-74
2022/01/03 00:54:52;;;;;;;;;;;;;;;8.11;100.00;99922.22;5009592;28;1902;-72
2022/01/03 00:57:22;;;;;;;;;;;;;;;8.10;100.00;99928.63;5010651;28;733;-72
2022/01/03 00:59:56;;;;;;;;;;;;;;;8.11;100.00;99924.06;5009076;28;997;-73
2022/01/03 01:02:24;;;;;;;;;;;;;;;8.11;100.00;99914.13;5009915;28;1007;-73
2022/01/03 01:04:51;;;;;;;;;;;;;;;8.13;100.00;99917.53;5013226;28;1439;-72
2022/01/03 01:07:19;;;;;;;;;;;;;;;8.11;100.00;99916.81;5014027;28;800;-72
2022/01/03 01:09:50;;;;;;;;;;;;;;;8.09;100.00;99907.13;5013009;28;1010;-75
2022/01/03 01:12:17;;;;;;;;;;;;;;;8.09;100.00;99904.41;5013044;28;805;-72
2022/01/03 01:14:43;;;;;;;;;;;;;;;8.05;100.00;99926.28;5012677;28;1919;-72
2022/01/03 01:17:09;;;;;;;;;;;;;;;8.03;100.00;99913.88;5013987;28;923;-72
2022/01/03 01:19:36;;;;;;;;;;;;;;;8.02;100.00;99909.50;5014166;28;1030;-72
2022/01/03 01:22:03;;;;;;;;;;;;;;;7.99;100.00;99901.63;4996404;28;1239;-71
2022/01/03 01:24:34;;;;;;;;;;;;;;;7.97;100.00;99909.00;5012651;28;1403;-70
2022/01/03 01:30:03;;;;;;;;;;;;;;;7.97;100.00;99898.19;4975620;28;1276;-71
2022/01/03 01:32:30;;;;;;;;;;;;;;;7.97;100.00;99892.78;4975362;28;1287;-72
2022/01/03 01:34:59;;;;;;;;;;;;;;;7.95;100.00;99889.34;4989988;28;1910;-72
2022/01/03 01:37:26;;;;;;;;;;;;;;;7.96;100.00;99889.22;5012160;28;1061;-73
2022/01/03 01:39:55;;;;;;;;;;;;;;;7.95;100.00;99883.94;5011940;28;1623;-72
2022/01/03 01:42:21;;;;;;;;;;;;;;;7.96;100.00;99885.66;5012424;28;920;-72
2022/01/03 01:44:53;;;;;;;;;;;;;;;7.97;100.00;99885.53;5012323;28;999;-72
2022/01/03 01:47:23;;;;;;;;;;;;;;;7.96;100.00;99875.69;5011925;28;995;-70
2022/01/03 01:49:54;;;;;;;;;;;;;;;7.94;100.00;99869.59;4995800;28;961;-70
2022/01/03 01:52:22;;;;;;;;;;;;;;;7.92;100.00;99868.84;5012133;28;844;-72
2022/01/03 01:54:54;;;;;;;;;;;;;;;7.95;100.00;99862.31;5012303;28;1971;-73
2022/01/03 01:57:24;;;;;;;;;;;;;;;7.93;100.00;99851.63;5012014;28;1067;-74
2022/01/03 02:00:03;;;;;;;;;;;;;;;7.92;100.00;99844.50;5012037;28;1085;-73
2022/01/03 02:02:46;;;;;;;;;;;;;;;7.93;100.00;99843.53;5013406;28;1413;-72
2022/01/03 02:05:19;;;;;;;;;;;;;;;7.94;100.00;99847.97;5012468;28;861;-73
2022/01/03 02:07:54;;;;;;;;;;;;;;;7.95;100.00;99848.81;5011763;28;674;-72
2022/01/03 02:10:24;;;;;;;;;;;;;;;7.94;100.00;99847.13;5011593;28;833;-72
2022/01/03 02:12:53;;;;;;;;;;;;;;;7.93;100.00;99843.53;5011729;28;1373;-72
2022/01/03 02:15:26;;;;;;;;;;;;;;;7.91;100.00;99850.06;5035183;22;3651;-77
2022/01/03 02:17:52;;;;;;;;;;;;;;;7.88;100.00;99838.53;5034635;28;927;-77
2022/01/03 02:20:23;;;;;;;;;;;;;;;7.86;100.00;99832.38;5032744;28;853;-77
2022/01/03 02:22:53;;;;;;;;;;;;;;;7.86;100.00;99831.53;5031746;28;1038;-76
2022/01/03 02:25:24;;;;;;;;;;;;;;;7.84;100.00;99831.69;5040817;28;1332;-76
2022/01/03 02:27:52;;;;;;;;;;;;;;;7.85;100.00;99819.00;5051504;28;944;-75
2022/01/03 02:30:20;;;;;;;;;;;;;;;7.85;100.00;99833.38;5051314;28;817;-77
2022/01/03 02:32:46;;;;;;;;;;;;;;;7.85;100.00;99827.13;5051708;28;990;-77
2022/01/03 02:35:13;;;;;;;;;;;;;;;7.81;100.00;99822.97;5051271;28;1887;-77
2022/01/03 02:37:43;;;;;;;;;;;;;;;7.81;100.00;99826.50;5051592;28;915;-77
2022/01/03 02:40:11;;;;;;;;;;;;;;;7.79;100.00;99808.72;5051512;28;852;-76
2022/01/03 02:42:38;;;;;;;;;;;;;;;7.77;100.00;99818.81;5034312;28;1305;-76
2022/01/03 02:45:06;;;;;;;;;;;;;;;7.74;100.00;99819.91;5051087;28;1323;-76
2022/01/03 02:47:33;;;;;;;;;;;;;;;7.73;100.00;99815.50;5050671;28;816;-75
2022/01/03 02:49:59;;;;;;;;;;;;;;;7.74;100.00;99816.34;5050964;28;931;-76
2022/01/03 02:52:26;;;;;;;;;;;;;;;7.71;100.00;99809.38;5050974;28;1025;-76
2022/01/03 02:54:54;;;;;;;;;;;;;;;7.70;100.00;99804.94;5050671;28;1344;-77
2022/01/03 02:57:23;;;;;;;;;;;;;;;7.66;100.00;99803.50;5051641;28;792;-75
2022/01/03 02:59:54;;;;;;;;;;;;;;;7.67;100.00;99805.19;5050746;28;874;-76
2022/01/03 03:02:22;;;;;;;;;;;;;;;7.65;100.00;99796.38;5050592;28;760;-76
2022/01/03 03:04:53;;;;;;;;;;;;;;;7.64;100.00;99789.25;5050477;28;1297;-77
2022/01/03 03:07:20;;;;;;;;;;;;;;;7.65;100.00;99793.66;5050177;28;844;-76
2022/01/03 03:09:46;;;;;;;;;;;;;;;7.63;100.00;99774.03;5050356;28;1148;-75
2022/01/03 03:12:14;;;;;;;;;;;;;;;7.61;100.00;99784.13;5051705;28;775;-75
2022/01/03 03:14:40;;;;;;;;;;;;;;;7.63;100.00;99771.31;5050905;28;1305;-76
2022/01/03 03:17:07;;;;;;;;;;;;;;;7.62;100.00;99769.63;5050031;28;1918;-76
2022/01/03 03:19:33;;;;;;;;;;;;;;;7.63;100.00;99760.50;5033595;28;1246;-76
2022/01/03 03:22:00;;;;;;;;;;;;;;;7.62;100.00;99764.22;5050156;28;868;-76
2022/01/03 03:24:26;;;;;;;;;;;;;;;7.61;100.00;99757.94;5050762;28;1371;-75
2022/01/03 03:26:52;;;;;;;;;;;;;;;7.63;100.00;99747.00;5049080;28;946;-76
2022/01/03 03:29:20;;;;;;;;;;;;;;;7.64;100.00;99737.94;5050237;28;943;-76
2022/01/03 03:31:46;;;;;;;;;;;;;;;7.65;100.00;99747.75;5051202;28;974;-74
2022/01/03 03:34:14;;;;;;;;;;;;;;;7.64;100.00;99744.22;5049691;28;1453;-75
2022/01/03 03:36:40;;;;;;;;;;;;;;;7.64;100.00;99735.22;5050618;28;1979;-76
2022/01/03 03:39:06;;;;;;;;;;;;;;;7.63;100.00;99722.69;5049885;28;955;-74
2022/01/03 03:41:33;;;;;;;;;;;;;;;7.62;100.00;99726.41;5049572;28;1041;-75
2022/01/03 03:43:59;;;;;;;;;;;;;;;7.60;100.00;99731.06;5049990;28;1049;-75
2022/01/03 03:46:27;;;;;;;;;;;;;;;7.59;100.00;99722.13;5049273;28;1312;-76
2022/01/03 03:48:53;;;;;;;;;;;;;;;7.59;100.00;99713.16;5049927;28;1002;-75
2022/01/03 03:51:23;;;;;;;;;;;;;;;7.58;100.00;99708.75;5049783;28;1018;-76
2022/01/03 03:53:51;;;;;;;;;;;;;;;7.59;100.00;99713.16;5049728;28;999;-76
2022/01/03 03:56:20;;;;;;;;;;;;;;;7.56;100.00;99692.66;5050330;28;1926;-75
2022/01/03 03:58:47;;;;;;;;;;;;;;;7.57;100.00;99696.22;5049479;28;1002;-74
2022/01/03 04:01:13;;;;;;;;;;;;;;;7.56;100.00;99698.06;5049561;28;939;-75
2022/01/03 04:03:46;;;;;;;;;;;;;;;7.54;100.00;99697.34;5049593;28;992;-75
2022/01/03 04:06:14;;;;;;;;;;;;;;;7.56;100.00;99706.16;5049149;28;1380;-75
2022/01/03 04:08:42;;;;;;;;;;;;;;;7.55;100.00;99704.47;5049492;28;1034;-76
2022/01/03 04:11:09;;;;;;;;;;;;;;;7.54;100.00;99697.34;5049545;28;943;-73
2022/01/03 04:13:36;;;;;;;;;;;;;;;7.52;100.00;99694.78;5049612;28;942;-75
2022/01/03 04:16:05;;;;;;;;;;;;;;;7.52;100.00;99697.47;5048984;28;1914;-76
2022/01/03 04:18:31;;;;;;;;;;;;;;;7.50;100.00;99696.75;5032415;28;1394;-76
2022/01/03 04:20:59;;;;;;;;;;;;;;;7.50;100.00;99679.69;5049603;28;801;-76
2022/01/03 04:23:25;;;;;;;;;;;;;;;7.51;100.00;99698.47;5032631;28;1273;-76
2022/01/03 04:25:52;;;;;;;;;;;;;;;7.50;100.00;99698.59;5050290;28;1407;-75
2022/01/03 04:28:18;;;;;;;;;;;;;;;7.46;100.00;99706.09;5050654;28;927;-76
2022/01/03 04:30:45;;;;;;;;;;;;;;;7.45;100.00;99706.22;5050632;28;1049;-75
2022/01/03 04:33:11;;;;;;;;;;;;;;;7.43;100.00;99709.06;5049500;28;870;-74
2022/01/03 04:35:38;;;;;;;;;;;;;;;7.41;100.00;99689.41;5048886;28;1910;-74
2022/01/03 04:38:06;;;;;;;;;;;;;;;7.43;100.00;99721.69;5051887;28;790;-75
2022/01/03 04:40:32;;;;;;;;;;;;;;;7.40;100.00;99706.59;5053630;28;919;-75
2022/01/03 04:42:59;;;;;;;;;;;;;;;7.34;100.00;99705.28;5061891;28;1502;-73
2022/01/03 04:45:26;;;;;;;;;;;;;;;7.33;100.00;99711.66;5068253;28;1518;-74
2022/01/03 04:47:52;;;;;;;;;;;;;;;7.28;100.00;99719.31;5054101;28;1501;-74
2022/01/03 04:50:19;;;;;;;;;;;;;;;7.23;100.00;99731.44;5053570;28;994;-74
2022/01/03 04:52:46;;;;;;;;;;;;;;;7.19;100.00;99729.03;5053238;28;994;-73
2022/01/03 04:55:13;;;;;;;;;;;;;;;7.13;100.00;99742.16;5036758;28;1336;-74
2022/01/03 04:57:41;;;;;;;;;;;;;;;7.08;100.00;99745.25;5052543;28;1989;-75
2022/01/03 05:00:08;;;;;;;;;;;;;;;7.05;100.00;99740.09;5053014;28;982;-74
2022/01/03 05:02:36;;;;;;;;;;;;;;;6.99;100.00;99743.31;5052782;28;1014;-74
2022/01/03 05:05:03;;;;;;;;;;;;;;;6.96;100.00;99747.13;5052741;28;1332;-74
2022/01/03 05:07:29;;;;;;;;;;;;;;;6.94;100.00;99753.63;5052452;28;1053;-74
2022/01/03 05:09:57;;;;;;;;;;;;;;;6.92;100.00;99751.06;5052620;28;947;-75
2022/01/03 05:12:24;;;;;;;;;;;;;;;6.91;100.00;99759.25;5052310;28;1018;-75
2022/01/03 05:14:51;;;;;;;;;;;;;;;6.87;100.00;99759.50;5052586;28;1335;-74
2022/01/03 05:17:17;;;;;;;;;;;;;;;6.86;100.00;99765.88;5052180;28;1910;-75
2022/01/03 05:19:44;;;;;;;;;;;;;;;6.82;100.00;99768.94;5052556;28;947;-74
2022/01/03 05:22:11;;;;;;;;;;;;;;;6.82;100.00;99772.50;5053650;28;924;-74
2022/01/03 05:24:37;;;;;;;;;;;;;;;6.79;100.00;99780.84;5052369;28;1422;-75
2022/01/03 05:27:05;;;;;;;;;;;;;;;6.76;100.00;99789.19;5052034;28;962;-75
2022/01/03 05:29:33;;;;;;;;;;;;;;;6.75;100.00;99787.47;5052042;28;1069;-75
2022/01/03 05:32:00;;;;;;;;;;;;;;;6.69;100.00;99798.75;5052437;28;845;-74
2022/01/03 05:34:26;;;;;;;;;;;;;;;6.67;100.00;99806.13;5053427;28;1352;-75
2022/01/03 05:36:53;;;;;;;;;;;;;;;6.65;100.00;99805.38;5051641;28;1973;-76
2022/01/03 05:39:20;;;;;;;;;;;;;;;6.60;100.00;99818.34;5052573;28;820;-75
2022/01/03 05:41:46;;;;;;;;;;;;;;;6.60;100.00;99826.44;5050922;28;1002;-74
2022/01/03 05:44:13;;;;;;;;;;;;;;;6.60;100.00;99826.44;5052200;28;808;-76
2022/01/03 05:46:41;;;;;;;;;;;;;;;6.57;100.00;99832.09;5051615;28;1372;-76
2022/01/03 05:49:08;;;;;;;;;;;;;;;6.54;100.00;99830.47;5050966;28;966;-76
2022/01/03 05:51:35;;;;;;;;;;;;;;;6.51;100.00;99838.81;5053302;28;982;-77
2022/01/03 05:54:01;;;;;;;;;;;;;;;6.45;100.00;99852.78;5052089;28;911;-76
2022/01/03 05:56:28;;;;;;;;;;;;;;;6.40;100.00;99852.25;5034961;28;1991;-76
2022/01/03 05:58:54;;;;;;;;;;;;;;;6.32;100.00;99871.72;5058135;28;1466;-75
2022/01/03 06:01:22;;;;;;;;;;;;;;;6.25;100.00;99867.78;5057150;28;1307;-74
2022/01/03 06:03:59;;;;;;;;;;;;;;;6.18;100.00;99884.41;5051111;28;852;-75
2022/01/03 06:06:53;;;;;;;;;;;;;;;6.14;100.00;99892.88;5059867;28;1572;-75
2022/01/03 06:09:13;;;;;;;;;;;;;;;6.12;100.00;99913.69;5071259;28;1112;-75
2022/01/03 06:11:39;;;;;;;;;;;;;;;6.09;100.00;99903.97;5059095;28;1597;-74
2022/01/03 06:14:06;;;;;;;;;;;;;;;6.09;100.00;99913.91;5047974;28;899;-76
2022/01/03 06:16:33;;;;;;;;;;;;;;;6.06;100.00;99909.63;5034188;28;1983;-75
2022/01/03 06:19:01;;;;;;;;;;;;;;;6.07;100.00;99930.22;5056141;28;1542;-75
2022/01/03 06:21:27;;;;;;;;;;;;;;;6.09;100.00;99938.16;5070911;28;939;-73
2022/01/03 06:23:54;;;;;;;;;;;;;;;6.06;100.00;99933.88;5070592;28;1579;-74
2022/01/03 06:26:20;;;;;;;;;;;;;;;6.05;100.00;99937.53;5068431;28;1513;-74
2022/01/03 06:28:50;;;;;;;;;;;;;;;6.05;100.00;99953.69;5070307;28;1567;-75
2022/01/03 06:31:19;;;;;;;;;;;;;;;6.06;100.00;99966.19;5071343;28;729;-76
2022/01/03 06:33:47;;;;;;;;;;;;;;;6.06;100.00;99968.03;5069762;28;1497;-75
2022/01/03 06:36:14;;;;;;;;;;;;;;;6.05;100.00;99969.84;5050675;28;1914;-76
2022/01/03 06:38:42;;;;;;;;;;;;;;;6.06;100.00;99971.59;5047282;28;1002;-76
2022/01/03 06:41:09;;;;;;;;;;;;;;;6.09;100.00;99962.41;5037664;28;1344;-75
2022/01/03 06:43:36;;;;;;;;;;;;;;;6.10;100.00;99974.94;5046132;28;1192;-75
2022/01/03 06:46:04;;;;;;;;;;;;;;;6.13;100.00;99983.66;5047157;28;1490;-76
2022/01/03 06:48:30;;;;;;;;;;;;;;;6.14;100.00;99979.94;5049703;28;1350;-76
2022/01/03 06:50:56;;;;;;;;;;;;;;;6.17;100.00;99989.66;5049969;28;1591;-77
2022/01/03 06:53:24;;;;;;;;;;;;;;;6.21;100.00;99996.53;5065087;28;1617;-75
2022/01/03 06:55:51;;;;;;;;;;;;;;;6.24;100.00;99995.44;5051234;28;1544;-76
2022/01/03 06:58:17;;;;;;;;;;;;;;;6.27;100.00;100001.47;5051592;28;1910;-77
2022/01/03 07:00:44;;;;;;;;;;;;;;;6.31;100.00;100002.13;5061234;28;1343;-74
2022/01/03 07:03:11;;;;;;;;;;;;;;;6.37;100.00;100007.03;5049472;28;1268;-76
2022/01/03 07:05:37;;;;;;;;;;;;;;;6.38;100.00;100003.34;5067851;28;1597;-76
2022/01/03 07:08:04;;;;;;;;;;;;;;;6.39;100.00;100007.78;5050487;28;1501;-76
2022/01/03 07:10:31;;;;;;;;;;;;;;;6.41;100.00;100010.34;5046616;28;1097;-77
2022/01/03 07:12:59;;;;;;;;;;;;;;;6.44;100.00;100015.50;5051590;28;765;-77
2022/01/03 07:20:55;;;;;;;;;;;;;;;6.54;100.00;100019.25;5031768;28;851;-74
2022/01/03 07:23:22;;;;;;;;;;;;;;;6.58;100.00;100023.41;5014283;28;1568;-76
2022/01/03 07:25:50;;;;;;;;;;;;;;;6.62;100.00;100024.06;5071281;28;1373;-75
2022/01/03 07:28:17;;;;;;;;;;;;;;;6.64;100.00;100022.09;5065155;28;1095;-75
2022/01/03 07:30:43;;;;;;;;;;;;;;;6.67;100.00;100032.66;5049934;28;1558;-75
2022/01/03 07:33:10;;;;;;;;;;;;;;;6.69;100.00;100036.09;5056685;28;1533;-76
2022/01/03 07:35:36;;;;;;;;;;;;;;;6.71;100.00;100034.16;5052564;28;1456;-76
2022/01/03 07:38:03;;;;;;;;;;;;;;;6.69;100.00;100039.66;5050645;28;1975;-76
2022/01/03 07:40:30;;;;;;;;;;;;;;;6.72;100.00;100035.00;5050535;28;1240;-75
2022/01/03 07:42:57;;;;;;;;;;;;;;;6.72;100.00;100038.56;5050870;28;1007;-75
2022/01/03 07:45:24;;;;;;;;;;;;;;;6.71;100.00;100039.56;5050839;28;1599;-75
2022/01/03 07:47:50;;;;;;;;;;;;;;;6.72;100.00;100041.28;5073142;28;907;-76
2022/01/03 07:50:16;;;;;;;;;;;;;;;6.72;100.00;100051.19;5056587;28;1283;-75
2022/01/03 07:52:43;;;;;;;;;;;;;;;6.74;100.00;100050.09;5051940;28;1212;-73
2022/01/03 07:55:10;;;;;;;;;;;;;;;6.75;100.00;100046.44;5053803;28;1312;-76
2022/01/03 07:57:37;;;;;;;;;;;;;;;6.80;100.00;100044.25;5070397;28;1917;-77
2022/01/03 08:00:05;;;;;;;;;;;;;;;6.84;100.00;100050.25;5051647;28;1563;-77
2022/01/03 08:02:40;;;;;;;;;;;;;;;6.84;100.00;100056.53;5050420;28;1022;-76
2022/01/03 08:05:08;;;;;;;;;;;;;;;6.87;100.00;100061.66;5052523;28;1482;-76
2022/01/03 08:07:35;;;;;;;;;;;;;;;6.91;100.00;100058.72;5050674;28;1127;-77
2022/01/03 08:10:01;;;;;;;;;;;;;;;6.94;100.00;100062.06;5050878;28;1436;-75
2022/01/03 08:12:27;;;;;;;;;;;;;;;6.94;100.00;100062.06;5064704;28;1398;-78
2022/01/03 08:14:54;;;;;;;;;;;;;;;6.96;100.00;100067.34;5051714;28;1401;-76
2022/01/03 08:17:21;;;;;;;;;;;;;;;6.96;100.00;100060.13;5050068;23;3677;-72
2022/01/03 08:19:48;;;;;;;;;;;;;;;6.97;100.00;100067.22;5024698;28;1038;-72
2022/01/03 08:22:14;;;;;;;;;;;;;;;6.97;100.00;100060.97;5030768;28;978;-71
2022/01/03 08:24:40;;;;;;;;;;;;;;;7.00;100.00;100060.72;5030348;28;851;-72
2022/01/03 08:27:07;;;;;;;;;;;;;;;7.03;100.00;100065.91;5028789;28;1378;-71
2022/01/03 08:29:34;;;;;;;;;;;;;;;7.07;100.00;100071.91;5014433;28;890;-71
2022/01/03 08:32:00;;;;;;;;;;;;;;;7.10;100.00;100074.38;4994643;28;1449;-72
2022/01/03 08:34:28;;;;;;;;;;;;;;;7.11;100.00;100074.25;4997564;28;950;-69
2022/01/03 08:36:54;;;;;;;;;;;;;;;7.19;100.00;100074.53;5004284;28;1995;-71
2022/01/03 08:39:20;;;;;;;;;;;;;;;7.27;100.00;100065.84;4993832;28;1558;-73
2022/01/03 08:41:47;;;;;;;;;;;;;;;7.30;100.00;100062.03;4990902;28;1494;-71
2022/01/03 08:44:13;;;;;;;;;;;;;;;7.30;100.00;100071.00;5002782;28;1602;-73
2022/01/03 08:46:40;;;;;;;;;;;;;;;7.30;100.00;100080.94;5011952;28;1330;-72
2022/01/03 08:49:06;;;;;;;;;;;;;;;7.28;100.00;100064.88;5004780;28;1604;-72
2022/01/03 08:51:34;;;;;;;;;;;;;;;7.30;100.00;100072.84;5008764;28;1026;-71
2022/01/03 08:54:00;;;;;;;;;;;;;;;7.29;100.00;100079.22;5026906;28;1113;-72
2022/01/03 08:56:26;;;;;;;;;;;;;;;7.32;100.00;100068.16;5012165;28;1336;-71
2022/01/03 08:58:53;;;;;;;;;;;;;;;7.34;100.00;100064.38;5027414;28;1918;-73
2022/01/03 09:01:19;;;;;;;;;;;;;;;7.47;100.00;100061.56;5010073;28;1108;-72
2022/01/03 09:03:50;;;;;;;;;;;;;;;7.69;100.00;100071.53;5023932;28;1918;-71
2022/01/03 09:06:16;;;;;;;;;;;;;;;8.04;100.00;100057.03;4992050;28;1487;-71
2022/01/03 09:08:43;;;;;;;;;;;;;;;8.33;100.00;100063.75;5006510;28;1178;-70
2022/01/03 09:11:10;;;;;;;;;;;;;;;8.31;100.00;100057.59;5005166;28;1514;-69
2022/01/03 09:13:37;;;;;;;;;;;;;;;8.29;100.00;100052.31;5010116;28;1531;-73
2022/01/03 09:16:06;;;;;;;;;;;;;;;8.41;100.00;100057.72;5009301;28;1677;-72
2022/01/03 09:18:33;;;;;;;;;;;;;;;8.57;100.00;100052.75;4995990;28;2002;-71
2022/01/03 09:20:59;;;;;;;;;;;;;;;8.69;100.00;100059.00;5009428;28;793;-71
2022/01/03 09:23:29;;;;;;;;;;;;;;;8.70;100.00;100064.28;5024541;28;963;-71
2022/01/03 09:28:49;;;;;;;;;;;;;;;8.23;100.00;100046.53;5001585;28;1383;-72
2022/01/03 09:31:16;;;;;;;;;;;;;;;8.14;100.00;100067.09;5002473;28;1210;-72
2022/01/03 09:33:43;;;;;;;;;;;;;;;8.14;100.00;100067.09;5013704;28;1027;-72
2022/01/03 09:36:09;;;;;;;;;;;;;;;8.16;100.00;100071.41;5013007;28;1414;-73
2022/01/03 09:38:36;;;;;;;;;;;;;;;8.20;100.00;100064.75;5010525;28;2005;-73
2022/01/03 09:41:05;;;;;;;;;;;;;;;8.25;100.00;100071.63;5002628;28;1574;-71
2022/01/03 09:43:34;;;;;;;;;;;;;;;8.20;100.00;100044.94;5011403;28;1476;-71
2022/01/03 09:46:02;;;;;;;;;;;;;;;8.17;100.00;100075.81;5011895;28;1550;-69
2022/01/03 09:48:29;;;;;;;;;;;;;;;8.13;100.00;100063.53;5013299;28;1259;-71
2022/01/03 09:50:57;;;;;;;;;;;;;;;8.07;100.00;100058.63;5012671;28;1570;-72
2022/01/03 09:53:24;;;;;;;;;;;;;;;8.03;100.00;100063.41;5012358;28;1284;-71
2022/01/03 09:55:51;;;;;;;;;;;;;;;7.95;100.00;100074.00;5000726;28;1549;-70
2022/01/03 09:58:18;;;;;;;;;;;;;;;7.81;100.00;100066.97;5015938;28;1914;-71
2022/01/03 10:00:45;;;;;;;;;;;;;;;7.84;100.00;100074.88;4996338;28;1529;-70
2022/01/03 10:03:11;;;;;;;;;;;;;;;7.85;100.00;100084.66;5041254;28;812;-72
2022/01/03 10:05:37;;;;;;;;;;;;;;;7.81;100.00;100083.19;4999575;28;1535;-70
2022/01/03 10:08:04;;;;;;;;;;;;;;;7.75;100.00;100089.09;5012825;28;887;-71
2022/01/03 10:10:30;;;;;;;;;;;;;;;7.77;100.00;100092.53;5022793;28;1272;-71
2022/01/03 10:12:57;;;;;;;;;;;;;;;7.78;100.00;100091.56;5008448;28;1580;-71
2022/01/03 10:15:25;;;;;;;;;;;;;;;7.82;100.00;100086.78;5010688;28;1479;-73
2022/01/03 10:17:51;;;;;;;;;;;;;;;7.84;100.00;100085.69;5004544;28;1985;-71
2022/01/03 10:20:18;;;;;;;;;;;;;;;7.86;100.00;100086.41;5000276;28;1495;-72
2022/01/03 10:22:44;;;;;;;;;;;;;;;7.95;100.00;100084.81;5001049;28;1003;-72
2022/01/03 10:25:12;;;;;;;;;;;;;;;8.08;100.00;100090.06;5011736;28;1558;-71
2022/01/03 10:27:45;;;;;;;;;;;;;;;8.11;100.00;100088.97;5010291;28;1684;-72
2022/01/03 10:30:12;;;;;;;;;;;;;;;8.18;100.00;100079.38;4995472;28;1609;-71
2022/01/03 10:32:39;;;;;;;;;;;;;;;8.19;100.00;100075.66;4998616;28;2302;-71
2022/01/03 10:35:13;;;;;;;;;;;;;;;8.19;100.00;100075.66;5003124;28;1569;-71
2022/01/03 10:37:40;;;;;;;;;;;;;;;8.29;100.00;100073.94;5016787;28;1989;-71
2022/01/03 10:40:20;;;;;;;;;;;;;;;8.34;100.00;100069.03;5007302;28;1612;-73
2022/01/03 10:42:46;;;;;;;;;;;;;;;8.40;100.00;100062.25;4993395;28;983;-71
2022/01/03 10:45:13;;;;;;;;;;;;;;;8.58;100.00;100070.72;5009502;28;1453;-70
2022/01/03 10:47:42;;;;;;;;;;;;;;;8.77;100.00;100070.03;5017326;28;1278;-70
2022/01/03 10:50:14;;;;;;;;;;;;;;;8.96;100.00;100063.06;5012118;28;1006;-72
2022/01/03 10:52:41;;;;;;;;;;;;;;;9.08;100.00;100053.03;5012410;28;702;-70
2022/01/03 10:55:09;;;;;;;;;;;;;;;9.10;100.00;100056.47;5011971;28;783;-70
2022/01/03 10:57:48;;;;;;;;;;;;;;;9.07;100.00;100048.59;5011693;28;1987;-69
2022/01/03 11:00:18;;;;;;;;;;;;;;;9.14;100.00;100047.94;5011811;28;991;-69
2022/01/03 11:02:59;;;;;;;;;;;;;;;9.29;100.00;100058.47;5011840;28;1002;-70
2022/01/03 11:05:37;;;;;;;;;;;;;;;9.29;100.00;100063.88;5009700;28;1445;-71
2022/01/03 11:10:51;;;;;;;;;;;;;;;9.10;100.00;100061.88;5011739;28;1006;-71
2022/01/03 11:13:18;;;;;;;;;;;;;;;8.96;100.00;100055.78;5011582;28;1033;-71
2022/01/03 11:15:50;;;;;;;;;;;;;;;8.88;100.00;100048.34;5011272;28;1355;-71
2022/01/03 11:18:17;;;;;;;;;;;;;;;8.80;100.00;100058.09;5011744;28;1910;-72
2022/01/03 11:20:46;;;;;;;;;;;;;;;8.70;100.00;100047.19;5009947;28;1326;-71
2022/01/03 11:23:18;;;;;;;;;;;;;;;8.68;100.00;100041.03;4994435;28;976;-68
2022/01/03 11:25:45;;;;;;;;;;;;;;;8.70;100.00;100044.47;4990593;28;1341;-71
2022/01/03 11:28:11;;;;;;;;;;;;;;;8.65;100.00;100041.31;4990091;28;1065;-69
2022/01/03 11:30:37;;;;;;;;;;;;;;;8.61;100.00;100035.28;4989323;28;1157;-72
2022/01/03 11:33:04;;;;;;;;;;;;;;;8.60;100.00;100035.41;5007758;28;1003;-70
2022/01/03 11:35:31;;;;;;;;;;;;;;;8.54;100.00;100039.50;5010882;28;1329;-71
2022/01/03 11:37:59;;;;;;;;;;;;;;;8.41;100.00;100036.91;5029638;28;1981;-70
2022/01/03 11:40:26;;;;;;;;;;;;;;;8.30;100.00;100039.66;5027007;28;934;-70
2022/01/03 11:42:52;;;;;;;;;;;;;;;8.19;100.00;100036.00;5011925;28;971;-72
2022/01/03 11:45:19;;;;;;;;;;;;;;;8.09;100.00;100028.78;5000764;28;887;-71
2022/01/03 11:47:45;;;;;;;;;;;;;;;8.00;100.00;100038.47;5005840;28;1356;-71
2022/01/03 11:50:12;;;;;;;;;;;;;;;7.86;100.00;100037.75;5004631;28;962;-71
2022/01/03 11:52:39;;;;;;;;;;;;;;;7.72;100.00;100040.69;4994905;28;1147;-71
2022/01/03 11:55:08;;;;;;;;;;;;;;;7.58;100.00;100051.78;4995971;28;948;-72
2022/01/03 11:57:56;;;;;;;;;;;;;;;7.44;100.00;100033.94;5030636;28;1336;-70
2022/01/03 12:05:52;;;;;;;;;;;;;;;7.28;100.00;100027.06;5030829;28;1274;-70
2022/01/03 12:08:21;;;;;;;;;;;;;;;7.27;100.00;100019.06;5016611;28;1154;-70
2022/01/03 12:10:48;;;;;;;;;;;;;;;7.28;100.00;100005.47;5018095;28;1021;-72
2022/01/03 12:13:16;;;;;;;;;;;;;;;7.25;100.00;100019.19;5027705;28;1154;-72
2022/01/03 12:15:42;;;;;;;;;;;;;;;7.21;100.00;100025.81;5029474;28;1429;-71
2022/01/03 12:18:23;;;;;;;;;;;;;;;7.18;100.00;100026.06;5031017;28;1915;-72
2022/01/03 12:20:50;;;;;;;;;;;;;;;7.16;100.00;100007.28;5030885;28;1512;-71
2022/01/03 12:23:31;;;;;;;;;;;;;;;7.19;100.00;100012.44;5031434;28;898;-72
2022/01/03 12:26:08;;;;;;;;;;;;;;;7.36;100.00;100024.63;5030439;28;2087;-71
2022/01/03 12:28:50;;;;;;;;;;;;;;;7.51;100.00;100005.50;5026582;28;1017;-70
2022/01/03 12:31:16;;;;;;;;;;;;;;;7.65;100.00;99998.97;5010653;28;1074;-72
2022/01/03 12:33:42;;;;;;;;;;;;;;;7.76;100.00;99996.25;5009497;28;1459;-71
2022/01/03 12:36:16;;;;;;;;;;;;;;;7.86;100.00;99993.66;5009112;28;1474;-71
2022/01/03 12:39:01;;;;;;;;;;;;;;;7.98;100.00;99986.41;4990442;28;1974;-71
2022/01/03 12:41:39;;;;;;;;;;;;;;;8.19;100.00;99984.63;4995991;28;1184;-70
2022/01/03 12:44:06;;;;;;;;;;;;;;;8.50;100.00;99986.66;4996549;28;1533;-71
2022/01/03 12:46:32;;;;;;;;;;;;;;;8.78;100.00;99985.16;4990821;28;1408;-70
2022/01/03 12:49:18;;;;;;;;;;;;;;;8.88;100.00;99974.38;5003516;28;1573;-71
2022/01/03 12:51:46;;;;;;;;;;;;;;;8.87;100.00;99973.53;5002093;28;1389;-71
2022/01/03 12:54:12;;;;;;;;;;;;;;;8.85;100.00;99975.50;4999442;28;1538;-70
2022/01/03 12:56:38;;;;;;;;;;;;;;;8.79;100.00;99970.63;5010103;28;1492;-71
2022/01/03 12:59:12;;;;;;;;;;;;;;;8.83;100.00;99976.63;5005654;28;1972;-71
2022/01/03 13:01:39;;;;;;;;;;;;;;;8.83;100.00;99963.97;4998164;28;1144;-71
2022/01/03 13:04:20;;;;;;;;;;;;;;;8.78;100.00;99968.91;4996948;28;1548;-70
2022/01/03 13:06:48;;;;;;;;;;;;;;;8.70;100.00;99961.44;5008767;28;2031;-71
2022/01/03 13:09:14;;;;;;;;;;;;;;;8.65;100.00;99968.25;5012943;28;1569;-71
2022/01/03 13:11:43;;;;;;;;;;;;;;;8.62;100.00;99958.53;5014277;28;746;-70
2022/01/03 13:14:12;;;;;;;;;;;;;;;8.58;100.00;99945.41;5012071;28;1296;-72
2022/01/03 13:16:39;;;;;;;;;;;;;;;8.58;100.00;99967.03;5004363;28;1483;-73
2022/01/03 13:19:07;;;;;;;;;;;;;;;8.47;100.00;99965.25;5010136;28;1983;-71